Time;durP1;ratioP1;P1;durP2;ratioP2;P2;SDS_P1;SDS_P2;PMS_P1;PMS_P2;Temp;Humidity;BMP_temperature;BMP_pressure;BME280_temperature;BME280_humidity;BME280_pressure;Samples;Min_cycle;Max_cycle;Signal;HPM_P1;HPM_P2
2022/03/28 00:01:14;;;;;;;20.97;10.90;;;7.40;99.90;;;;;;5090765;27;20233;-49
2022/03/28 00:03:43;;;;;;;16.67;10.30;;;7.40;99.90;;;;;;5095901;28;20298;-45
2022/03/28 00:06:10;;;;;;;22.57;10.80;;;7.40;99.90;;;;;;5078150;28;20209;-50
2022/03/28 00:08:37;;;;;;;20.70;9.53;;;7.40;99.90;;;;;;5093699;27;20940;-48
2022/03/28 00:11:06;;;;;;;22.67;10.30;;;7.30;99.90;;;;;;5063153;27;20212;-50
2022/03/28 00:13:33;;;;;;;17.43;10.07;;;7.40;99.90;;;;;;5073985;27;20220;-48
2022/03/28 00:16:00;;;;;;;22.90;9.40;;;7.40;99.90;;;;;;5090404;28;20518;-50
2022/03/28 00:18:27;;;;;;;22.67;10.53;;;7.40;99.90;;;;;;5075392;27;20311;-47
2022/03/28 00:20:55;;;;;;;18.20;9.87;;;7.50;99.90;;;;;;5099685;27;20204;-44
2022/03/28 00:23:23;;;;;;;16.57;10.53;;;7.50;99.90;;;;;;5080029;28;21376;-44
2022/03/28 00:25:50;;;;;;;15.60;9.37;;;7.50;99.90;;;;;;5070302;27;20217;-43
2022/03/28 00:28:17;;;;;;;14.83;8.90;;;7.40;99.90;;;;;;5078559;27;20277;-45
2022/03/28 00:30:44;;;;;;;15.37;8.70;;;7.40;99.90;;;;;;5090993;27;20204;-46
2022/03/28 00:33:11;;;;;;;10.27;7.03;;;7.40;99.90;;;;;;5066238;27;20261;-47
2022/03/28 00:35:39;;;;;;;8.30;7.00;;;7.40;99.90;;;;;;5086406;28;20204;-46
2022/03/28 00:38:07;;;;;;;17.20;7.63;;;7.30;99.90;;;;;;5080283;27;20621;-47
2022/03/28 00:40:35;;;;;;;16.13;8.50;;;7.40;99.90;;;;;;5057123;28;20208;-47
2022/03/28 00:43:05;;;;;;;10.03;6.60;;;7.40;99.90;;;;;;5068464;28;20295;-47
2022/03/28 00:45:33;;;;;;;11.33;7.47;;;7.30;99.90;;;;;;5090761;28;20204;-45
2022/03/28 00:48:00;;;;;;;13.60;7.40;;;7.30;99.90;;;;;;5088128;28;20233;-46
2022/03/28 00:50:28;;;;;;;13.17;7.67;;;7.30;99.90;;;;;;5090680;28;20207;-45
2022/03/28 00:52:55;;;;;;;13.83;7.77;;;7.20;99.90;;;;;;5080286;28;20254;-45
2022/03/28 00:55:23;;;;;;;15.00;8.03;;;7.20;99.90;;;;;;5075628;27;20377;-46
2022/03/28 00:57:50;;;;;;;13.10;7.83;;;7.20;99.90;;;;;;5083123;28;20290;-46
2022/03/28 01:00:18;;;;;;;13.17;7.93;;;7.10;99.90;;;;;;5073372;28;20282;-45
2022/03/28 01:02:45;;;;;;;18.63;8.70;;;7.20;99.90;;;;;;5087154;28;20552;-45
2022/03/28 01:05:13;;;;;;;15.10;7.50;;;7.10;99.90;;;;;;5078685;28;20211;-46
2022/03/28 01:07:40;;;;;;;11.40;7.80;;;7.20;99.90;;;;;;5077287;28;20542;-46
2022/03/28 01:10:10;;;;;;;13.43;7.80;;;7.10;99.90;;;;;;5085294;28;20569;-47
2022/03/28 01:12:42;;;;;;;11.80;8.60;;;7.10;99.90;;;;;;5061077;28;20258;-45
2022/03/28 01:15:10;;;;;;;15.53;8.53;;;7.00;99.90;;;;;;5082818;28;20274;-46
2022/03/28 01:20:25;;;;;;;11.73;8.60;;;6.90;99.90;;;;;;5082550;27;20214;-46
2022/03/28 01:22:54;;;;;;;18.63;8.83;;;6.90;99.90;;;;;;5092610;28;20231;-45
2022/03/28 01:25:24;;;;;;;12.90;8.20;;;6.90;99.90;;;;;;5082208;27;20288;-46
2022/03/28 01:27:52;;;;;;;11.03;7.60;;;6.90;99.90;;;;;;5077110;28;20268;-46
2022/03/28 01:30:21;;;;;;;12.63;8.00;;;7.00;99.90;;;;;;5071870;28;20211;-46
2022/03/28 01:32:49;;;;;;;14.00;7.80;;;6.90;99.90;;;;;;5085869;28;20250;-45
2022/03/28 01:35:29;;;;;;;13.43;8.23;;;6.90;99.90;;;;;;5081821;28;20203;-45
2022/03/28 01:37:58;;;;;;;14.13;7.93;;;6.90;99.90;;;;;;5081186;28;20557;-46
2022/03/28 01:40:26;;;;;;;10.27;8.03;;;6.90;99.90;;;;;;5081493;28;20567;-46
2022/03/28 01:42:52;;;;;;;12.40;7.33;;;6.80;99.90;;;;;;5086440;28;20257;-45
2022/03/28 01:45:19;;;;;;;20.73;8.37;;;6.80;99.90;;;;;;5062358;28;20210;-48
2022/03/28 01:47:47;;;;;;;12.37;7.97;;;6.80;99.90;;;;;;5099547;28;20266;-48
2022/03/28 01:50:14;;;;;;;12.50;8.27;;;6.80;99.90;;;;;;5055448;28;20419;-49
2022/03/28 01:52:42;;;;;;;18.97;8.70;;;6.80;99.90;;;;;;5087810;28;20224;-45
2022/03/28 01:55:11;;;;;;;15.37;7.30;;;6.80;99.90;;;;;;5082467;28;20453;-52
2022/03/28 01:57:39;;;;;;;12.33;8.00;;;6.80;99.90;;;;;;5091752;28;20211;-45
2022/03/28 02:00:07;;;;;;;14.20;8.03;;;6.80;99.90;;;;;;5067111;28;20217;-50
2022/03/28 02:02:34;;;;;;;11.90;7.03;;;6.80;99.90;;;;;;5075489;28;20625;-46
2022/03/28 02:05:01;;;;;;;12.83;7.47;;;6.70;99.90;;;;;;5101650;28;20262;-50
2022/03/28 02:07:28;;;;;;;10.70;7.30;;;6.70;99.90;;;;;;5067117;27;20204;-49
2022/03/28 02:09:55;;;;;;;16.23;7.80;;;6.70;99.90;;;;;;5080221;28;20204;-45
2022/03/28 02:12:23;;;;;;;9.40;6.43;;;6.70;99.90;;;;;;5091295;27;20200;-50
2022/03/28 02:14:50;;;;;;;10.80;6.97;;;6.70;99.90;;;;;;5077096;28;20227;-47
2022/03/28 02:17:17;;;;;;;9.73;6.93;;;6.70;99.90;;;;;;5087399;27;20460;-45
2022/03/28 02:19:44;;;;;;;9.13;6.70;;;6.70;99.90;;;;;;5096531;28;20821;-46
2022/03/28 02:22:11;;;;;;;11.67;7.73;;;6.70;99.90;;;;;;5073199;27;20290;-46
2022/03/28 02:24:39;;;;;;;11.73;6.80;;;6.70;99.90;;;;;;5097553;28;20275;-45
2022/03/28 02:27:06;;;;;;;14.23;7.67;;;6.70;99.90;;;;;;5067787;27;20204;-46
2022/03/28 02:29:35;;;;;;;12.97;7.73;;;6.70;99.90;;;;;;5078402;27;20227;-47
2022/03/28 02:32:02;;;;;;;9.00;7.23;;;6.70;99.90;;;;;;5082482;27;20204;-45
2022/03/28 02:34:29;;;;;;;11.37;7.73;;;6.60;99.90;;;;;;5083157;28;20445;-45
2022/03/28 02:36:56;;;;;;;11.30;7.67;;;6.60;99.90;;;;;;5085423;28;20282;-49
2022/03/28 02:39:23;;;;;;;23.57;8.63;;;6.60;99.90;;;;;;5097804;28;20299;-47
2022/03/28 02:41:50;;;;;;;12.07;8.03;;;6.60;99.90;;;;;;5084917;28;20231;-49
2022/03/28 02:44:17;;;;;;;13.57;8.43;;;6.60;99.90;;;;;;5100789;28;20675;-46
2022/03/28 02:46:45;;;;;;;12.90;7.90;;;6.50;99.90;;;;;;5065594;28;20249;-49
2022/03/28 02:49:12;;;;;;;14.23;8.67;;;6.50;99.90;;;;;;5083588;28;20214;-45
2022/03/28 02:51:40;;;;;;;13.13;8.87;;;6.50;99.90;;;;;;5095890;27;20205;-46
2022/03/28 02:54:08;;;;;;;14.20;8.97;;;6.50;99.90;;;;;;5084688;28;20303;-45
2022/03/28 02:56:35;;;;;;;15.67;9.60;;;6.40;99.90;;;;;;5075725;28;20214;-46
2022/03/28 02:59:02;;;;;;;18.17;9.23;;;6.30;99.90;;;;;;5087331;28;20719;-45
2022/03/28 03:01:29;;;;;;;15.43;8.30;;;6.40;99.90;;;;;;5081672;27;20546;-46
2022/03/28 03:03:57;;;;;;;14.63;8.60;;;6.40;99.90;;;;;;5079661;27;20224;-46
2022/03/28 03:06:24;;;;;;;13.37;8.00;;;6.40;99.90;;;;;;5092977;27;20218;-46
2022/03/28 03:08:51;;;;;;;9.20;6.33;;;6.30;99.90;;;;;;5086483;27;20338;-45
2022/03/28 03:11:18;;;;;;;9.67;6.00;;;6.30;99.90;;;;;;5076973;28;20564;-44
2022/03/28 03:13:45;;;;;;;8.57;5.30;;;6.30;99.90;;;;;;5083354;27;20719;-45
2022/03/28 03:16:12;;;;;;;7.10;4.17;;;6.30;99.90;;;;;;5078111;28;20314;-46
2022/03/28 03:18:38;;;;;;;5.17;3.23;;;6.30;99.90;;;;;;5073073;28;20207;-47
2022/03/28 03:21:06;;;;;;;5.83;3.80;;;6.20;99.90;;;;;;5090923;27;20210;-45
2022/03/28 03:23:33;;;;;;;5.70;3.30;;;6.20;99.90;;;;;;5086851;27;20243;-46
2022/03/28 03:26:00;;;;;;;4.53;3.30;;;6.40;99.90;;;;;;5084134;28;20697;-45
2022/03/28 03:28:27;;;;;;;5.17;3.30;;;6.30;99.90;;;;;;5088693;27;20276;-45
2022/03/28 03:30:54;;;;;;;5.33;3.60;;;6.30;99.90;;;;;;5076113;28;20204;-44
2022/03/28 03:33:21;;;;;;;6.20;4.03;;;6.30;99.90;;;;;;5074817;28;20227;-45
2022/03/28 03:35:47;;;;;;;5.50;3.47;;;6.20;99.90;;;;;;5066178;28;20313;-45
2022/03/28 03:38:16;;;;;;;7.50;4.00;;;6.20;99.90;;;;;;5100263;28;21172;-46
2022/03/28 03:40:42;;;;;;;5.27;3.33;;;6.30;99.90;;;;;;5081289;28;20558;-45
2022/03/28 03:43:09;;;;;;;7.90;4.83;;;6.30;99.90;;;;;;5089930;28;20227;-45
2022/03/28 03:45:36;;;;;;;7.73;4.77;;;6.30;99.90;;;;;;5066036;27;20266;-45
2022/03/28 03:48:03;;;;;;;7.40;5.13;;;6.20;99.90;;;;;;5073682;27;20210;-46
2022/03/28 03:50:30;;;;;;;6.83;4.03;;;6.20;99.90;;;;;;5068685;27;20243;-45
2022/03/28 03:52:57;;;;;;;5.97;3.53;;;6.10;99.90;;;;;;5093460;28;20227;-45
2022/03/28 03:55:25;;;;;;;4.43;3.30;;;6.10;99.90;;;;;;5075213;27;20204;-45
2022/03/28 03:57:52;;;;;;;4.13;3.13;;;6.10;99.90;;;;;;5076953;27;20657;-45
2022/03/28 04:00:19;;;;;;;4.67;2.80;;;6.10;99.90;;;;;;5074731;27;20204;-45
2022/03/28 04:02:46;;;;;;;3.87;3.00;;;6.10;99.90;;;;;;5072635;28;20311;-45
2022/03/28 04:05:13;;;;;;;5.57;2.33;;;6.10;99.90;;;;;;5070031;28;24562;-47
2022/03/28 04:07:40;;;;;;;2.43;2.20;;;6.10;99.90;;;;;;5086024;27;20274;-45
2022/03/28 04:10:07;;;;;;;2.77;2.00;;;6.10;99.90;;;;;;5062045;27;20207;-44
2022/03/28 04:12:35;;;;;;;3.13;1.70;;;6.20;99.90;;;;;;5085200;27;20302;-45
2022/03/28 04:15:03;;;;;;;4.37;2.70;;;6.20;99.90;;;;;;5091023;28;20209;-44
2022/03/28 04:17:30;;;;;;;3.27;2.30;;;6.10;99.90;;;;;;5080038;27;20675;-45
2022/03/28 04:19:58;;;;;;;3.20;2.40;;;6.10;99.90;;;;;;5064846;28;20238;-44
2022/03/28 04:22:25;;;;;;;4.83;2.77;;;6.10;99.90;;;;;;5070138;27;20223;-46
2022/03/28 04:24:52;;;;;;;3.43;2.90;;;6.10;99.90;;;;;;5090856;27;20258;-45
2022/03/28 04:27:19;;;;;;;4.83;3.43;;;6.20;99.90;;;;;;5077366;28;20333;-46
2022/03/28 04:29:47;;;;;;;6.20;4.60;;;6.20;99.90;;;;;;5094626;28;34374;-45
2022/03/28 04:32:14;;;;;;;6.93;4.33;;;6.20;99.90;;;;;;5080114;28;20757;-45
2022/03/28 04:34:41;;;;;;;7.73;5.00;;;6.20;99.90;;;;;;5068298;28;20231;-44
2022/03/28 04:37:08;;;;;;;10.83;6.07;;;6.20;99.90;;;;;;5061048;27;20223;-46
2022/03/28 04:39:35;;;;;;;11.83;7.10;;;6.30;99.90;;;;;;5078107;28;20203;-46
2022/03/28 04:42:02;;;;;;;10.50;7.03;;;6.30;99.90;;;;;;5087478;28;20310;-46
2022/03/28 04:44:29;;;;;;;12.37;7.83;;;6.20;99.90;;;;;;5081806;27;20256;-45
2022/03/28 04:46:57;;;;;;;13.60;7.83;;;6.20;99.90;;;;;;5074471;28;20212;-47
2022/03/28 04:49:24;;;;;;;9.10;6.57;;;6.20;99.90;;;;;;5065060;27;20322;-45
2022/03/28 04:51:51;;;;;;;8.47;5.90;;;6.20;99.90;;;;;;5035320;28;20922;-46
2022/03/28 04:54:17;;;;;;;7.27;5.03;;;6.10;99.90;;;;;;5095280;27;20251;-46
2022/03/28 04:56:44;;;;;;;6.73;4.70;;;6.10;99.90;;;;;;5076608;27;20299;-45
2022/03/28 04:59:11;;;;;;;8.93;4.93;;;6.10;99.90;;;;;;5081335;28;20718;-44
2022/03/28 05:01:38;;;;;;;6.63;4.03;;;6.00;99.90;;;;;;5079484;28;20283;-46
2022/03/28 05:04:06;;;;;;;6.83;4.20;;;6.00;99.90;;;;;;5075641;27;20229;-45
2022/03/28 05:06:33;;;;;;;7.90;4.83;;;6.00;99.90;;;;;;5046288;28;20218;-46
2022/03/28 05:09:00;;;;;;;8.27;4.53;;;5.90;99.90;;;;;;5092016;27;20280;-43
2022/03/28 05:11:29;;;;;;;6.33;3.63;;;6.00;99.90;;;;;;5075061;27;20852;-46
2022/03/28 05:13:55;;;;;;;8.67;4.17;;;6.00;99.90;;;;;;5077817;27;20215;-45
2022/03/28 05:16:22;;;;;;;6.87;4.00;;;6.00;99.90;;;;;;5074522;27;20207;-46
2022/03/28 05:18:49;;;;;;;5.40;3.67;;;6.00;99.90;;;;;;5072346;27;20743;-46
2022/03/28 05:21:17;;;;;;;7.07;3.63;;;6.00;99.90;;;;;;5060190;27;20213;-45
2022/03/28 05:23:46;;;;;;;7.73;4.60;;;6.10;99.90;;;;;;5051534;28;20496;-45
2022/03/28 05:26:12;;;;;;;9.27;4.40;;;6.10;99.90;;;;;;5075155;28;20218;-45
2022/03/28 05:28:39;;;;;;;6.37;4.37;;;6.10;99.90;;;;;;5077513;27;20206;-45
2022/03/28 05:31:06;;;;;;;8.40;4.93;;;6.10;99.90;;;;;;5093113;28;20238;-45
2022/03/28 05:33:33;;;;;;;7.27;5.47;;;6.10;99.90;;;;;;5097474;28;20295;-49
2022/03/28 05:36:00;;;;;;;9.63;6.07;;;6.10;99.90;;;;;;5086817;28;20209;-44
2022/03/28 05:38:28;;;;;;;9.40;6.30;;;6.10;99.90;;;;;;5079950;28;20320;-48
2022/03/28 05:40:56;;;;;;;8.83;6.03;;;6.10;99.90;;;;;;5098349;27;20277;-43
2022/03/28 05:43:24;;;;;;;9.80;6.13;;;6.10;99.90;;;;;;5071905;28;20228;-45
2022/03/28 05:45:52;;;;;;;9.07;6.37;;;6.10;99.90;;;;;;5098470;28;20215;-45
2022/03/28 05:48:19;;;;;;;9.70;6.20;;;6.00;99.90;;;;;;5102883;28;20274;-45
2022/03/28 05:50:46;;;;;;;9.77;5.77;;;6.10;99.90;;;;;;5082382;28;22502;-45
2022/03/28 05:53:13;;;;;;;9.93;6.37;;;6.10;99.90;;;;;;5080106;27;20507;-45
2022/03/28 05:55:42;;;;;;;8.10;5.60;;;6.10;99.90;;;;;;5086244;28;20388;-44
2022/03/28 05:58:09;;;;;;;8.37;5.20;;;6.20;99.90;;;;;;5084585;28;20208;-45
2022/03/28 06:00:36;;;;;;;8.77;4.97;;;6.10;99.90;;;;;;5090303;28;20728;-47
2022/03/28 06:03:04;;;;;;;7.63;4.97;;;6.00;99.90;;;;;;5090379;28;20230;-46
2022/03/28 06:05:32;;;;;;;6.87;4.80;;;6.00;99.90;;;;;;5094192;28;20203;-44
2022/03/28 06:07:58;;;;;;;14.43;5.43;;;6.00;99.90;;;;;;5070572;28;21084;-45
2022/03/28 06:10:26;;;;;;;9.37;4.87;;;6.00;99.90;;;;;;5092660;28;20583;-51
2022/03/28 06:12:54;;;;;;;7.80;5.10;;;6.00;99.90;;;;;;5085204;28;20496;-45
2022/03/28 06:15:21;;;;;;;5.77;3.50;;;6.00;99.90;;;;;;5084798;28;20282;-44
2022/03/28 06:17:48;;;;;;;4.03;3.33;;;6.00;99.90;;;;;;5091767;28;20503;-45
2022/03/28 06:20:15;;;;;;;5.73;3.57;;;5.90;99.90;;;;;;5094161;28;20211;-45
2022/03/28 06:22:42;;;;;;;13.17;3.37;;;6.00;99.90;;;;;;5060959;28;25080;-45
2022/03/28 06:25:09;;;;;;;8.30;3.83;;;6.00;99.90;;;;;;5091345;28;20346;-46
2022/03/28 06:27:40;;;;;;;4.90;3.40;;;6.10;99.90;;;;;;5095317;28;20203;-44
2022/03/28 06:30:11;;;;;;;4.67;3.90;;;6.10;99.90;;;;;;5074421;28;20422;-46
2022/03/28 06:32:38;;;;;;;4.67;3.57;;;6.20;99.90;;;;;;5088747;28;20210;-45
2022/03/28 06:35:06;;;;;;;5.20;3.47;;;6.20;99.90;;;;;;5091556;28;20209;-45
2022/03/28 06:37:34;;;;;;;7.73;3.73;;;6.10;99.90;;;;;;5075985;28;20208;-44
2022/03/28 06:40:01;;;;;;;7.60;4.20;;;6.20;99.90;;;;;;5077175;28;20704;-45
2022/03/28 06:42:27;;;;;;;5.67;4.00;;;6.20;99.90;;;;;;5095290;28;20210;-45
2022/03/28 06:44:54;;;;;;;4.53;3.30;;;6.30;99.90;;;;;;5067762;28;20566;-47
2022/03/28 06:47:23;;;;;;;5.73;3.67;;;6.20;99.90;;;;;;5089186;28;20284;-44
2022/03/28 06:49:49;;;;;;;5.07;3.57;;;6.30;99.90;;;;;;5094273;28;20274;-45
2022/03/28 06:52:16;;;;;;;5.03;2.97;;;6.30;99.90;;;;;;5091851;27;20203;-45
2022/03/28 06:54:43;;;;;;;4.73;3.23;;;6.30;99.90;;;;;;5074088;28;20268;-45
2022/03/28 06:57:10;;;;;;;3.13;2.63;;;6.30;99.90;;;;;;5089022;28;20283;-45
2022/03/28 06:59:37;;;;;;;3.37;2.30;;;6.40;99.90;;;;;;5077293;27;20275;-45
2022/03/28 07:02:04;;;;;;;2.93;2.30;;;6.60;99.90;;;;;;5091133;27;20288;-44
2022/03/28 07:04:32;;;;;;;3.23;2.30;;;6.60;99.90;;;;;;5093105;27;20257;-45
2022/03/28 07:06:59;;;;;;;4.03;2.27;;;6.50;99.90;;;;;;5097388;27;20233;-45
2022/03/28 07:09:26;;;;;;;2.40;2.07;;;6.50;99.90;;;;;;5084790;28;20499;-44
2022/03/28 07:11:53;;;;;;;2.80;2.10;;;6.50;99.90;;;;;;5102769;27;20207;-45
2022/03/28 07:14:20;;;;;;;2.50;1.50;;;6.50;99.90;;;;;;5101890;28;20299;-44
2022/03/28 07:16:47;;;;;;;1.77;1.20;;;6.50;99.90;;;;;;5080070;27;20430;-45
2022/03/28 07:19:16;;;;;;;1.60;1.40;;;6.50;99.90;;;;;;5099273;27;20315;-44
2022/03/28 07:21:44;;;;;;;4.43;1.43;;;6.40;99.90;;;;;;5094410;28;20431;-45
2022/03/28 07:24:11;;;;;;;1.73;1.33;;;6.40;99.90;;;;;;5078964;28;20232;-44
2022/03/28 07:26:38;;;;;;;1.97;1.10;;;6.40;99.90;;;;;;5097033;27;20208;-45
2022/03/28 07:29:05;;;;;;;2.13;1.00;;;6.40;99.90;;;;;;5098346;28;20203;-44
2022/03/28 07:31:36;;;;;;;2.40;1.23;;;6.40;99.90;;;;;;5079843;27;20342;-45
2022/03/28 07:36:45;;;;;;;1.10;1.00;;;6.50;99.90;;;;;;5099723;28;20214;-46
2022/03/28 07:39:12;;;;;;;1.40;1.30;;;6.60;99.90;;;;;;5082035;27;20207;-44
2022/03/28 07:41:39;;;;;;;1.60;1.40;;;6.60;99.90;;;;;;5087901;27;20206;-46
2022/03/28 07:44:06;;;;;;;5.73;1.50;;;6.50;99.90;;;;;;5097726;28;20219;-44
2022/03/28 07:46:33;;;;;;;1.80;1.50;;;6.60;99.90;;;;;;5078261;28;20739;-45
2022/03/28 07:48:59;;;;;;;1.30;1.20;;;6.60;99.90;;;;;;5101668;28;20204;-45
2022/03/28 07:51:26;;;;;;;3.70;1.90;;;6.60;99.90;;;;;;5094251;27;20617;-47
2022/03/28 07:53:55;;;;;;;2.73;2.10;;;6.60;99.90;;;;;;5102835;27;20479;-44
2022/03/28 07:56:22;;;;;;;2.60;2.13;;;6.60;99.90;;;;;;5078949;27;20242;-44
2022/03/28 07:58:49;;;;;;;3.50;2.10;;;6.60;99.90;;;;;;5100914;27;20590;-44
2022/03/28 08:01:15;;;;;;;2.43;2.00;;;6.70;99.90;;;;;;5087640;28;21225;-49
2022/03/28 08:03:42;;;;;;;3.07;2.10;;;6.70;99.90;;;;;;5087862;27;20603;-42
2022/03/28 08:06:10;;;;;;;2.63;2.43;;;6.70;99.90;;;;;;5090563;27;20203;-47
2022/03/28 08:08:37;;;;;;;3.33;2.33;;;6.80;99.90;;;;;;5097348;27;20211;-47
2022/03/28 08:11:07;;;;;;;2.60;2.40;;;6.80;99.90;;;;;;5081752;27;20486;-49
2022/03/28 08:13:34;;;;;;;4.50;2.70;;;6.80;99.90;;;;;;5097368;27;20278;-43
2022/03/28 08:16:02;;;;;;;2.20;2.00;;;6.80;99.90;;;;;;5096523;27;20199;-46
2022/03/28 08:18:29;;;;;;;3.07;2.60;;;6.90;99.90;;;;;;5082762;28;20597;-46
2022/03/28 08:20:56;;;;;;;7.83;2.47;;;6.80;99.90;;;;;;5098907;27;20507;-46
2022/03/28 08:23:23;;;;;;;2.60;2.40;;;6.80;99.90;;;;;;5094784;27;20739;-46
2022/03/28 08:25:51;;;;;;;3.93;2.50;;;6.90;99.90;;;;;;5101462;27;20275;-46
2022/03/28 08:28:19;;;;;;;3.60;2.47;;;6.90;99.90;;;;;;5078240;27;20212;-44
2022/03/28 08:30:46;;;;;;;2.47;2.07;;;6.90;99.90;;;;;;5101952;28;20227;-45
2022/03/28 08:33:12;;;;;;;2.20;1.90;;;6.90;99.90;;;;;;5094175;28;20554;-45
2022/03/28 08:35:40;;;;;;;3.70;2.17;;;7.00;99.90;;;;;;5090343;28;20778;-46
2022/03/28 08:38:07;;;;;;;3.10;2.67;;;7.00;99.90;;;;;;5095924;27;20208;-45
2022/03/28 08:40:34;;;;;;;3.73;2.63;;;7.00;99.90;;;;;;5089741;27;20440;-46
2022/03/28 08:43:04;;;;;;;4.07;2.80;;;7.00;99.90;;;;;;5083139;28;20432;-46
2022/03/28 08:45:32;;;;;;;4.73;3.10;;;7.00;99.90;;;;;;5094227;28;20230;-46
2022/03/28 08:48:01;;;;;;;9.73;3.63;;;7.00;99.90;;;;;;5092451;28;20572;-46
2022/03/28 08:50:28;;;;;;;6.03;3.33;;;7.20;99.90;;;;;;5086776;27;20371;-45
2022/03/28 08:52:55;;;;;;;5.53;3.20;;;7.20;99.90;;;;;;5090741;27;20232;-46
2022/03/28 08:55:22;;;;;;;5.60;3.47;;;7.20;99.90;;;;;;5091260;28;20193;-46
2022/03/28 08:57:49;;;;;;;3.73;2.97;;;7.20;99.90;;;;;;5095340;27;23214;-45
2022/03/28 09:00:17;;;;;;;5.93;3.30;;;7.20;99.90;;;;;;5075188;27;20280;-49
2022/03/28 09:02:47;;;;;;;4.20;3.73;;;7.30;99.90;;;;;;5095868;28;20658;-44
2022/03/28 09:05:14;;;;;;;3.50;3.20;;;7.30;99.90;;;;;;5085561;27;20274;-48
2022/03/28 09:07:42;;;;;;;5.40;3.63;;;7.30;99.90;;;;;;5093924;27;20200;-44
2022/03/28 09:10:13;;;;;;;4.40;3.47;;;7.40;99.90;;;;;;5098517;28;20212;-48
2022/03/28 09:12:57;;;;;;;4.87;3.00;;;7.40;99.90;;;;;;5094637;27;20298;-44
2022/03/28 09:15:24;;;;;;;6.13;3.20;;;7.40;99.90;;;;;;5075280;28;20484;-44
2022/03/28 09:17:57;;;;;;;4.10;2.80;;;7.40;99.90;;;;;;5099526;28;20289;-45
2022/03/28 09:20:25;;;;;;;5.37;3.00;;;7.40;99.90;;;;;;5087481;27;20428;-44
2022/03/28 09:22:52;;;;;;;3.80;3.40;;;7.50;99.90;;;;;;5100343;27;20208;-45
2022/03/28 09:25:19;;;;;;;4.30;3.40;;;7.50;99.90;;;;;;5097191;27;20236;-46
2022/03/28 09:27:47;;;;;;;5.60;3.10;;;7.50;99.90;;;;;;5080703;27;20205;-45
2022/03/28 09:30:15;;;;;;;5.30;3.77;;;7.60;99.90;;;;;;5082200;28;20213;-45
2022/03/28 09:32:44;;;;;;;4.23;3.50;;;7.60;99.90;;;;;;5091851;28;20200;-44
2022/03/28 09:35:20;;;;;;;3.47;2.70;;;7.60;99.90;;;;;;5084805;27;20309;-47
2022/03/28 09:37:52;;;;;;;4.07;3.63;;;7.70;99.90;;;;;;5093262;28;20211;-46
2022/03/28 09:40:27;;;;;;;5.27;3.30;;;7.80;99.90;;;;;;5097672;28;20260;-45
2022/03/28 09:42:54;;;;;;;5.80;3.57;;;7.70;99.90;;;;;;5099271;28;20418;-45
2022/03/28 09:45:23;;;;;;;7.17;4.13;;;7.70;99.90;;;;;;5097462;28;20226;-46
2022/03/28 09:48:01;;;;;;;6.53;3.23;;;7.80;99.90;;;;;;5078437;28;20469;-46
2022/03/28 09:50:32;;;;;;;6.20;3.73;;;7.70;99.90;;;;;;5096966;28;20555;-46
2022/03/28 09:53:11;;;;;;;3.97;3.47;;;7.70;99.90;;;;;;5087969;28;20263;-45
2022/03/28 09:55:55;;;;;;;9.63;3.70;;;7.80;99.90;;;;;;5092738;28;20491;-48
2022/03/28 09:58:45;;;;;;;7.63;4.10;;;7.90;99.90;;;;;;5087177;28;20282;-48
2022/03/28 10:01:18;;;;;;;5.37;3.80;;;7.90;99.90;;;;;;5094046;28;20217;-44
2022/03/28 10:03:47;;;;;;;5.83;4.60;;;7.90;99.90;;;;;;5069492;28;20227;-49
2022/03/28 10:06:16;;;;;;;8.27;4.40;;;7.90;99.90;;;;;;5083304;28;20692;-47
2022/03/28 10:08:44;;;;;;;5.40;4.20;;;7.90;99.90;;;;;;5092071;28;20278;-48
2022/03/28 10:11:12;;;;;;;7.17;4.37;;;7.90;99.90;;;;;;5091781;28;20208;-45
2022/03/28 10:13:39;;;;;;;7.17;4.50;;;8.00;99.90;;;;;;5095193;28;20271;-49
2022/03/28 10:16:08;;;;;;;6.30;4.77;;;8.00;99.90;;;;;;5094495;28;20410;-49
2022/03/28 10:18:37;;;;;;;7.37;5.00;;;8.00;99.90;;;;;;5080104;28;20212;-49
2022/03/28 10:21:08;;;;;;;15.03;5.67;;;8.10;99.90;;;;;;5092717;28;20202;-44
2022/03/28 10:23:43;;;;;;;6.80;4.47;;;8.00;99.90;;;;;;5087246;27;20230;-49
2022/03/28 10:26:11;;;;;;;6.03;4.50;;;8.10;99.90;;;;;;5098920;27;20194;-46
2022/03/28 10:28:38;;;;;;;5.30;4.73;;;8.20;99.90;;;;;;5094602;27;20233;-47
2022/03/28 10:31:14;;;;;;;7.20;4.00;;;8.20;99.90;;;;;;5104486;27;20331;-44
2022/03/28 10:33:52;;;;;;;6.80;5.40;;;8.30;99.90;;;;;;5078212;27;20462;-49
2022/03/28 10:36:28;;;;;;;5.43;4.80;;;8.30;99.90;;;;;;5102343;27;20507;-44
2022/03/28 10:39:33;;;;;;;10.07;5.63;;;8.30;99.90;;;;;;5078507;27;20203;-44
2022/03/28 10:42:13;;;;;;;9.37;5.20;;;8.50;99.90;;;;;;5094960;27;20234;-46
2022/03/28 10:44:45;;;;;;;10.20;4.73;;;8.40;99.90;;;;;;5097341;28;20238;-45
2022/03/28 10:47:13;;;;;;;7.27;4.90;;;8.40;99.90;;;;;;5103013;28;20205;-46
2022/03/28 10:49:42;;;;;;;5.07;4.20;;;8.40;99.90;;;;;;5062192;27;21991;-46
2022/03/28 10:52:15;;;;;;;9.20;4.30;;;8.30;99.90;;;;;;5086444;27;20432;-46
2022/03/28 10:54:44;;;;;;;6.70;4.40;;;8.30;99.90;;;;;;5080411;28;20598;-46
2022/03/28 10:57:27;;;;;;;6.13;4.57;;;8.40;99.90;;;;;;5086162;28;20532;-46
2022/03/28 11:00:09;;;;;;;7.63;4.40;;;8.30;99.90;;;;;;5084162;28;20203;-44
2022/03/28 11:02:37;;;;;;;6.57;3.80;;;8.40;99.90;;;;;;5062553;27;20516;-44
2022/03/28 11:05:14;;;;;;;6.67;4.03;;;8.50;99.90;;;;;;5083634;27;20246;-44
2022/03/28 11:07:41;;;;;;;5.50;4.00;;;8.40;99.90;;;;;;5070256;27;20522;-46
2022/03/28 11:10:13;;;;;;;8.83;3.80;;;8.50;99.90;;;;;;5072562;28;20249;-44
2022/03/28 11:12:42;;;;;;;7.87;3.53;;;8.40;99.90;;;;;;5090592;28;20685;-44
2022/03/28 11:15:18;;;;;;;8.07;3.70;;;8.40;99.90;;;;;;5092105;28;20214;-45
2022/03/28 11:17:57;;;;;;;5.10;3.10;;;8.40;99.90;;;;;;5075467;28;20453;-45
2022/03/28 11:20:26;;;;;;;6.90;3.17;;;8.40;99.90;;;;;;5063448;28;20713;-45
2022/03/28 11:22:58;;;;;;;5.37;2.90;;;8.50;99.90;;;;;;5077574;27;20617;-45
2022/03/28 11:25:41;;;;;;;6.57;3.83;;;8.40;99.90;;;;;;5063593;27;20473;-45
2022/03/28 11:28:14;;;;;;;4.73;3.73;;;8.50;99.90;;;;;;5077051;28;20210;-45
2022/03/28 11:30:59;;;;;;;4.70;3.40;;;8.50;99.90;;;;;;5089163;27;20236;-45
2022/03/28 11:33:38;;;;;;;4.53;3.60;;;8.50;99.90;;;;;;5072514;27;20234;-45
2022/03/28 11:36:08;;;;;;;5.53;3.67;;;8.60;99.90;;;;;;5078330;27;20203;-44
2022/03/28 11:38:38;;;;;;;6.53;3.87;;;8.60;99.90;;;;;;5083126;27;20226;-46
2022/03/28 11:41:07;;;;;;;6.60;4.00;;;8.60;99.90;;;;;;5085128;28;20207;-44
2022/03/28 11:43:36;;;;;;;4.67;4.10;;;8.60;99.90;;;;;;5098515;27;20298;-45
2022/03/28 11:46:11;;;;;;;12.00;5.03;;;8.70;99.90;;;;;;5096867;27;20254;-44
2022/03/28 11:48:38;;;;;;;6.80;3.83;;;8.70;99.90;;;;;;5097274;27;20431;-45
2022/03/28 11:51:15;;;;;;;8.53;4.23;;;8.70;99.90;;;;;;5081736;27;20211;-44
2022/03/28 11:53:42;;;;;;;6.57;3.87;;;8.60;99.90;;;;;;5088708;27;20230;-46
2022/03/28 11:56:11;;;;;;;5.20;3.97;;;8.60;99.90;;;;;;5086645;27;20492;-45
2022/03/28 11:58:37;;;;;;;12.67;4.70;;;8.50;99.90;;;;;;5103300;27;20273;-44
2022/03/28 12:01:09;;;;;;;7.97;4.80;;;8.60;99.90;;;;;;5102166;27;20231;-45
2022/03/28 12:03:37;;;;;;;8.10;4.53;;;8.50;99.90;;;;;;5072584;27;20626;-45
2022/03/28 12:06:05;;;;;;;9.47;4.10;;;8.50;99.90;;;;;;5079269;27;20534;-45
2022/03/28 12:08:31;;;;;;;6.20;4.43;;;8.50;99.90;;;;;;5089490;28;20462;-45
2022/03/28 12:10:59;;;;;;;6.57;4.93;;;8.40;99.90;;;;;;5086157;27;20381;-45
2022/03/28 12:13:27;;;;;;;6.93;5.23;;;8.30;99.90;;;;;;5078884;27;20265;-45
2022/03/28 12:15:56;;;;;;;11.33;4.93;;;8.40;99.90;;;;;;5090215;27;20274;-45
2022/03/28 12:18:29;;;;;;;11.40;6.53;;;8.30;99.90;;;;;;5096598;27;20228;-44
2022/03/28 12:20:57;;;;;;;8.77;6.23;;;8.40;99.90;;;;;;5081669;27;20294;-45
2022/03/28 12:23:26;;;;;;;11.50;6.50;;;8.50;99.90;;;;;;5080667;27;20218;-45
2022/03/28 12:25:55;;;;;;;11.23;6.10;;;8.50;99.90;;;;;;5092965;27;20558;-45
2022/03/28 12:28:29;;;;;;;8.20;5.87;;;8.40;99.90;;;;;;5069527;27;20213;-45
2022/03/28 12:30:58;;;;;;;11.67;6.53;;;8.40;99.90;;;;;;5085083;27;20274;-45
2022/03/28 12:33:27;;;;;;;10.40;5.80;;;8.40;99.90;;;;;;5068333;27;20255;-45
2022/03/28 12:35:58;;;;;;;8.70;5.57;;;8.50;99.90;;;;;;5071800;27;20218;-45
2022/03/28 12:38:28;;;;;;;10.17;7.37;;;8.50;99.90;;;;;;5073450;27;20215;-45
2022/03/28 12:40:56;;;;;;;9.70;7.90;;;8.40;99.90;;;;;;5058807;27;20210;-45
2022/03/28 12:43:28;;;;;;;11.60;7.83;;;8.30;99.90;;;;;;5076133;27;20548;-45
2022/03/28 12:45:56;;;;;;;11.03;8.00;;;8.40;99.90;;;;;;5089894;27;20226;-44
2022/03/28 12:48:23;;;;;;;9.83;7.93;;;8.50;99.90;;;;;;5080055;28;20544;-45
2022/03/28 12:50:55;;;;;;;13.23;8.20;;;8.50;99.90;;;;;;5065825;27;20212;-45
2022/03/28 12:53:26;;;;;;;10.87;8.47;;;8.60;99.90;;;;;;5072607;27;20249;-45
2022/03/28 12:55:54;;;;;;;11.83;8.03;;;8.60;99.90;;;;;;5062711;27;20362;-45
2022/03/28 12:58:36;;;;;;;11.13;7.90;;;8.50;99.90;;;;;;5073546;28;20598;-45
2022/03/28 13:01:06;;;;;;;13.30;8.13;;;8.60;99.90;;;;;;5075420;27;20297;-45
2022/03/28 13:03:33;;;;;;;12.70;8.50;;;8.50;99.90;;;;;;5095027;28;20264;-45
2022/03/28 13:06:08;;;;;;;11.13;8.60;;;8.60;99.90;;;;;;5073159;27;20232;-45